Time;durP1;ratioP1;P1;durP2;ratioP2;P2;SDS_P1;SDS_P2;PMS_P1;PMS_P2;Temp;Humidity;BMP_temperature;BMP_pressure;BME280_temperature;BME280_humidity;BME280_pressure;Samples;Min_cycle;Max_cycle;Signal;HPM_P1;HPM_P2
2022/02/22 00:01:31;;;;;;;16.00;5.30;;;;;;;;;;5033078;28;20494;-78
2022/02/22 00:03:58;;;;;;;12.63;4.10;;;;;;;;;;5032479;28;20450;-78
2022/02/22 00:06:25;;;;;;;18.10;4.27;;;;;;;;;;5032796;28;20464;-78
2022/02/22 00:08:52;;;;;;;19.87;4.40;;;;;;;;;;5036990;28;20551;-79
2022/02/22 00:11:21;;;;;;;23.63;4.47;;;;;;;;;;5037015;28;20458;-78
2022/02/22 00:13:50;;;;;;;19.83;4.40;;;;;;;;;;5036029;28;20548;-78
2022/02/22 00:16:17;;;;;;;17.97;4.50;;;;;;;;;;5036742;28;21024;-78
2022/02/22 00:18:44;;;;;;;19.13;4.60;;;;;;;;;;5037753;28;20799;-78
2022/02/22 00:21:12;;;;;;;20.87;4.90;;;;;;;;;;5037172;28;21073;-78
2022/02/22 00:23:39;;;;;;;13.80;4.50;;;;;;;;;;5036227;28;20503;-79
2022/02/22 00:26:06;;;;;;;18.10;4.53;;;;;;;;;;5036187;28;20460;-78
2022/02/22 00:28:34;;;;;;;25.73;4.90;;;;;;;;;;5037713;28;20840;-79
2022/02/22 00:31:02;;;;;;;28.00;7.13;;;;;;;;;;5036341;28;20540;-78
2022/02/22 00:33:29;;;;;;;25.87;5.73;;;;;;;;;;5035806;28;20873;-78
2022/02/22 00:35:57;;;;;;;25.80;5.27;;;;;;;;;;5035385;28;20539;-78
2022/02/22 00:38:24;;;;;;;23.60;6.50;;;;;;;;;;5036824;28;20462;-78
2022/02/22 00:40:51;;;;;;;31.80;7.10;;;;;;;;;;5036601;28;20452;-78
2022/02/22 00:43:18;;;;;;;27.63;4.70;;;;;;;;;;5035496;28;20984;-79
2022/02/22 00:45:45;;;;;;;16.83;4.60;;;;;;;;;;5035750;28;20849;-78
2022/02/22 00:48:13;;;;;;;18.63;4.60;;;;;;;;;;5036527;28;20452;-79
2022/02/22 00:50:40;;;;;;;10.97;4.60;;;;;;;;;;5036423;28;20456;-77
2022/02/22 00:53:07;;;;;;;20.10;4.40;;;;;;;;;;5035729;28;20866;-78
2022/02/22 00:55:35;;;;;;;16.60;5.27;;;;;;;;;;5034580;28;20451;-77
2022/02/22 00:58:02;;;;;;;14.53;5.03;;;;;;;;;;5035595;28;20460;-78
2022/02/22 01:00:29;;;;;;;16.63;3.80;;;;;;;;;;5035882;28;20454;-79
2022/02/22 01:02:56;;;;;;;18.63;3.30;;;;;;;;;;5036280;28;20506;-78
2022/02/22 01:05:25;;;;;;;8.57;2.93;;;;;;;;;;5035161;28;20460;-78
2022/02/22 01:07:52;;;;;;;18.80;3.10;;;;;;;;;;5035651;28;20464;-78
2022/02/22 01:10:19;;;;;;;14.20;3.53;;;;;;;;;;5035671;28;20451;-79
2022/02/22 01:12:46;;;;;;;10.43;2.53;;;;;;;;;;5029113;28;20483;-79
2022/02/22 01:15:13;;;;;;;11.07;2.50;;;;;;;;;;5036933;28;20463;-77
2022/02/22 01:17:40;;;;;;;9.47;2.40;;;;;;;;;;5035950;28;20458;-80
2022/02/22 01:20:09;;;;;;;9.10;2.70;;;;;;;;;;5035725;28;20456;-78
2022/02/22 01:22:38;;;;;;;8.83;2.33;;;;;;;;;;5035371;28;20522;-78
2022/02/22 01:25:05;;;;;;;13.83;3.07;;;;;;;;;;5033499;28;20441;-78
2022/02/22 01:27:33;;;;;;;10.30;2.30;;;;;;;;;;5035720;28;20453;-78
2022/02/22 01:30:01;;;;;;;10.77;2.20;;;;;;;;;;5026270;28;20457;-78
2022/02/22 01:32:28;;;;;;;6.70;2.40;;;;;;;;;;5014949;28;20527;-78
2022/02/22 01:34:55;;;;;;;13.43;3.90;;;;;;;;;;5032767;28;20456;-77
2022/02/22 01:37:22;;;;;;;10.43;3.30;;;;;;;;;;5015347;28;20448;-77
2022/02/22 01:39:50;;;;;;;19.13;3.53;;;;;;;;;;5027017;28;20455;-79
2022/02/22 01:42:18;;;;;;;19.77;4.97;;;;;;;;;;5026127;28;20467;-78
2022/02/22 01:44:47;;;;;;;18.67;5.80;;;;;;;;;;5031628;28;20456;-78
2022/02/22 01:47:16;;;;;;;17.57;5.77;;;;;;;;;;5034758;28;20450;-77
2022/02/22 01:49:43;;;;;;;20.80;5.20;;;;;;;;;;5034382;28;20460;-79
2022/02/22 01:52:11;;;;;;;18.67;7.27;;;;;;;;;;5035082;28;20540;-78
2022/02/22 01:54:38;;;;;;;17.60;6.47;;;;;;;;;;5034191;28;20461;-78
2022/02/22 01:57:07;;;;;;;26.87;5.20;;;;;;;;;;5034273;28;20455;-79
2022/02/22 01:59:34;;;;;;;29.33;6.10;;;;;;;;;;5034965;28;20461;-79
2022/02/22 02:02:01;;;;;;;32.30;5.90;;;;;;;;;;5033509;28;20488;-79
2022/02/22 02:04:29;;;;;;;27.73;5.30;;;;;;;;;;5034537;28;20445;-79
2022/02/22 02:06:57;;;;;;;33.33;7.00;;;;;;;;;;5034546;28;20455;-79
2022/02/22 02:09:25;;;;;;;31.67;5.30;;;;;;;;;;5035889;28;20944;-78
2022/02/22 02:11:54;;;;;;;25.90;5.00;;;;;;;;;;5034772;28;20821;-78
2022/02/22 02:14:23;;;;;;;22.80;4.33;;;;;;;;;;5031902;28;20492;-78
2022/02/22 02:16:50;;;;;;;26.13;5.80;;;;;;;;;;5030165;28;20487;-78
2022/02/22 02:19:18;;;;;;;27.10;5.57;;;;;;;;;;5033723;28;20448;-78
2022/02/22 02:21:46;;;;;;;29.87;6.33;;;;;;;;;;5034983;28;20453;-78
2022/02/22 02:24:15;;;;;;;31.07;6.70;;;;;;;;;;5033924;28;20455;-78
2022/02/22 02:26:43;;;;;;;22.60;3.83;;;;;;;;;;5034108;28;20817;-78
2022/02/22 02:29:10;;;;;;;22.37;5.17;;;;;;;;;;5027774;28;20456;-78
2022/02/22 02:31:38;;;;;;;20.80;6.20;;;;;;;;;;5034142;28;20548;-78
2022/02/22 02:34:07;;;;;;;25.67;5.63;;;;;;;;;;5032592;28;20481;-78
2022/02/22 02:39:07;;;;;;;18.80;5.43;;;;;;;;;;5068468;22;1090266;-80
2022/02/22 02:41:36;;;;;;;20.37;4.60;;;;;;;;;;5095696;28;20217;-79
2022/02/22 02:44:05;;;;;;;22.30;5.47;;;;;;;;;;5088422;28;20543;-81
2022/02/22 02:46:33;;;;;;;23.93;4.80;;;;;;;;;;5093614;28;20539;-80
2022/02/22 02:49:00;;;;;;;27.67;5.73;;;;;;;;;;5085177;28;20475;-81
2022/02/22 02:51:28;;;;;;;22.17;7.03;;;;;;;;;;5073893;28;20487;-80
2022/02/22 02:53:56;;;;;;;24.77;5.10;;;;;;;;;;5085051;28;20563;-79
2022/02/22 02:56:24;;;;;;;28.83;5.83;;;;;;;;;;5092047;28;20550;-81
2022/02/22 02:58:53;;;;;;;26.93;4.90;;;;;;;;;;5078582;28;20564;-82
2022/02/22 03:01:20;;;;;;;20.50;4.90;;;;;;;;;;5078111;28;20449;-81
2022/02/22 03:03:48;;;;;;;21.83;5.00;;;;;;;;;;5075543;28;20805;-81
2022/02/22 03:06:15;;;;;;;27.97;5.90;;;;;;;;;;5086991;28;20981;-81
2022/02/22 03:08:42;;;;;;;27.87;5.77;;;;;;;;;;5087795;28;20480;-81
2022/02/22 03:11:09;;;;;;;22.23;4.57;;;;;;;;;;5088420;28;20461;-79
2022/02/22 03:13:36;;;;;;;17.73;4.30;;;;;;;;;;5077036;28;20492;-81
2022/02/22 03:16:05;;;;;;;27.50;4.47;;;;;;;;;;5083076;28;20503;-80
2022/02/22 03:18:32;;;;;;;24.37;4.83;;;;;;;;;;5074817;28;21017;-79
2022/02/22 03:20:59;;;;;;;31.80;5.00;;;;;;;;;;5074026;28;20453;-80
2022/02/22 03:23:27;;;;;;;28.93;4.77;;;;;;;;;;5073544;28;20455;-79
2022/02/22 03:25:54;;;;;;;28.17;6.10;;;;;;;;;;5081913;28;20450;-80
2022/02/22 03:28:21;;;;;;;19.20;4.00;;;;;;;;;;5053621;28;20551;-79
2022/02/22 03:30:48;;;;;;;26.57;5.47;;;;;;;;;;5070175;28;21039;-80
2022/02/22 03:33:17;;;;;;;24.53;4.87;;;;;;;;;;5072516;28;20474;-80
2022/02/22 03:35:45;;;;;;;33.03;5.43;;;;;;;;;;5073655;28;20452;-79
2022/02/22 03:38:12;;;;;;;26.97;5.80;;;;;;;;;;5072944;28;20479;-80
2022/02/22 03:40:39;;;;;;;22.67;5.93;;;;;;;;;;5074041;28;20451;-79
2022/02/22 03:43:06;;;;;;;21.60;4.33;;;;;;;;;;5077111;28;20877;-80
2022/02/22 03:45:34;;;;;;;23.13;4.93;;;;;;;;;;5076701;28;20456;-80
2022/02/22 03:48:01;;;;;;;18.00;4.47;;;;;;;;;;5077281;28;20479;-81
2022/02/22 03:50:30;;;;;;;24.87;5.33;;;;;;;;;;5077130;28;20448;-79
2022/02/22 03:52:57;;;;;;;33.50;5.70;;;;;;;;;;5076765;28;20920;-79
2022/02/22 03:55:24;;;;;;;18.30;4.70;;;;;;;;;;5080155;28;20462;-80
2022/02/22 03:57:52;;;;;;;34.93;5.67;;;;;;;;;;5075320;28;20505;-80
2022/02/22 04:00:21;;;;;;;16.83;4.57;;;;;;;;;;5077151;28;20481;-80
2022/02/22 04:02:48;;;;;;;24.97;5.30;;;;;;;;;;5075032;28;20913;-79
2022/02/22 04:05:16;;;;;;;32.83;5.07;;;;;;;;;;5077177;28;20453;-80
2022/02/22 04:07:45;;;;;;;26.73;5.20;;;;;;;;;;5077494;28;20468;-79
2022/02/22 04:10:13;;;;;;;18.90;5.73;;;;;;;;;;5077440;28;20451;-80
2022/02/22 04:12:40;;;;;;;24.40;6.70;;;;;;;;;;5084275;28;20444;-79
2022/02/22 04:15:08;;;;;;;22.73;5.50;;;;;;;;;;5079347;28;20495;-81
2022/02/22 04:17:35;;;;;;;25.67;4.80;;;;;;;;;;5075446;28;20478;-80
2022/02/22 04:20:03;;;;;;;33.30;6.40;;;;;;;;;;5074876;28;20463;-80
2022/02/22 04:22:30;;;;;;;34.77;8.90;;;;;;;;;;5076845;28;20462;-80
2022/02/22 04:24:58;;;;;;;26.37;6.57;;;;;;;;;;5076535;28;20453;-80
2022/02/22 04:27:25;;;;;;;17.43;4.50;;;;;;;;;;5086737;28;20475;-80
2022/02/22 04:29:52;;;;;;;20.35;4.40;;;;;;;;;;5077288;28;20442;-85
2022/02/22 04:32:19;;;;;;;21.17;5.57;;;;;;;;;;5077331;28;20202;-85
2022/02/22 04:34:47;;;;;;;18.37;6.30;;;;;;;;;;5074495;28;20835;-84
2022/02/22 04:37:15;;;;;;;21.27;4.90;;;;;;;;;;5085529;28;21100;-85
2022/02/22 04:41:35;;;;;;;12.30;4.00;;;;;;;;;;5091384;28;20557;-84
2022/02/22 04:44:02;;;;;;;10.57;2.50;;;;;;;;;;5090758;28;20444;-83
2022/02/22 04:46:29;;;;;;;19.63;5.80;;;;;;;;;;5078873;28;20460;-83
2022/02/22 04:48:56;;;;;;;22.60;5.00;;;;;;;;;;5081248;28;20501;-82
2022/02/22 04:51:23;;;;;;;19.93;5.80;;;;;;;;;;5073254;28;20469;-83
2022/02/22 04:53:50;;;;;;;16.97;4.10;;;;;;;;;;5084522;28;20556;-83
2022/02/22 04:56:18;;;;;;;21.27;4.53;;;;;;;;;;5074698;28;20828;-84
2022/02/22 04:58:47;;;;;;;18.73;4.03;;;;;;;;;;5091195;28;20486;-83
2022/02/22 05:01:14;;;;;;;35.53;6.57;;;;;;;;;;5102720;28;20480;-81
2022/02/22 05:03:41;;;;;;;22.73;7.33;;;;;;;;;;5082895;28;21032;-84
2022/02/22 05:06:08;;;;;;;23.33;6.00;;;;;;;;;;5074176;28;20501;-84
2022/02/22 05:08:35;;;;;;;20.23;4.93;;;;;;;;;;5075525;28;20552;-84
2022/02/22 05:11:03;;;;;;;17.20;4.90;;;;;;;;;;5072911;28;20471;-84
2022/02/22 05:13:30;;;;;;;25.57;4.80;;;;;;;;;;5069758;28;20858;-84
2022/02/22 05:15:58;;;;;;;16.80;4.10;;;;;;;;;;5070215;28;21013;-83
2022/02/22 05:18:26;;;;;;;31.37;6.00;;;;;;;;;;5071855;28;20472;-82
2022/02/22 05:20:55;;;;;;;20.77;5.13;;;;;;;;;;5086350;28;20543;-81
2022/02/22 05:23:23;;;;;;;21.90;5.77;;;;;;;;;;5082181;28;20438;-83
2022/02/22 05:25:50;;;;;;;22.77;5.50;;;;;;;;;;5069540;28;20461;-82
2022/02/22 05:28:17;;;;;;;21.03;7.17;;;;;;;;;;5070045;28;20484;-83
2022/02/22 05:30:45;;;;;;;25.37;9.63;;;;;;;;;;5070102;28;20480;-83
2022/02/22 05:33:13;;;;;;;29.37;8.27;;;;;;;;;;5069039;28;20459;-84
2022/02/22 05:35:40;;;;;;;38.60;8.50;;;;;;;;;;5068516;28;20502;-83
2022/02/22 05:38:08;;;;;;;22.00;8.50;;;;;;;;;;5069960;28;21013;-83
2022/02/22 05:40:35;;;;;;;30.20;7.87;;;;;;;;;;5070021;28;20484;-83
2022/02/22 05:43:02;;;;;;;21.17;6.80;;;;;;;;;;5075161;28;20447;-86
2022/02/22 05:45:29;;;;;;;17.13;4.57;;;;;;;;;;5075227;28;20447;-84
2022/02/22 05:47:56;;;;;;;27.87;6.10;;;;;;;;;;5073448;28;20480;-85
2022/02/22 05:50:25;;;;;;;26.33;6.30;;;;;;;;;;5072878;28;20462;-84
2022/02/22 05:52:53;;;;;;;30.27;5.90;;;;;;;;;;5075726;28;20473;-85
2022/02/22 05:55:20;;;;;;;39.07;13.23;;;;;;;;;;5078086;28;20529;-85
2022/02/22 05:57:50;;;;;;;34.07;7.90;;;;;;;;;;5060486;28;20864;-84
2022/02/22 06:00:17;;;;;;;37.83;9.77;;;;;;;;;;5058299;28;20570;-85
2022/02/22 06:02:45;;;;;;;25.40;9.43;;;;;;;;;;5059212;28;20458;-84
2022/02/22 06:05:12;;;;;;;29.50;9.73;;;;;;;;;;5059939;28;20462;-85
2022/02/22 06:07:40;;;;;;;31.73;7.53;;;;;;;;;;5060934;28;20473;-85
2022/02/22 06:10:08;;;;;;;18.47;6.80;;;;;;;;;;5059198;28;20448;-84
2022/02/22 06:12:35;;;;;;;20.07;6.40;;;;;;;;;;5059487;28;20563;-86
2022/02/22 06:15:04;;;;;;;22.50;5.80;;;;;;;;;;5041427;28;20460;-84
2022/02/22 06:17:38;;;;;;;26.07;6.57;;;;;;;;;;5048748;28;20477;-86
2022/02/22 06:20:06;;;;;;;20.83;6.20;;;;;;;;;;5060526;28;20504;-84
2022/02/22 06:22:33;;;;;;;21.17;6.07;;;;;;;;;;5053624;28;20462;-84
2022/02/22 06:25:02;;;;;;;19.83;5.60;;;;;;;;;;5054531;28;20482;-84
2022/02/22 06:27:29;;;;;;;21.80;6.87;;;;;;;;;;5056639;28;20476;-85
2022/02/22 06:29:56;;;;;;;33.70;6.50;;;;;;;;;;5057967;28;20445;-83
2022/02/22 06:32:24;;;;;;;17.40;6.97;;;;;;;;;;5058372;28;20490;-84
2022/02/22 06:34:51;;;;;;;20.37;5.80;;;;;;;;;;5056689;28;20885;-83
2022/02/22 06:37:18;;;;;;;26.77;7.47;;;;;;;;;;5056874;28;21016;-84
2022/02/22 06:39:45;;;;;;;27.23;7.17;;;;;;;;;;5057409;28;20464;-83
2022/02/22 06:42:13;;;;;;;21.90;5.77;;;;;;;;;;5066940;28;20547;-83
2022/02/22 06:44:40;;;;;;;31.03;7.60;;;;;;;;;;5062501;28;20463;-85
2022/02/22 06:47:08;;;;;;;17.13;6.30;;;;;;;;;;5061420;28;20481;-84
2022/02/22 06:49:35;;;;;;;21.07;5.07;;;;;;;;;;5059891;28;20539;-84
2022/02/22 06:52:02;;;;;;;25.43;6.80;;;;;;;;;;5059082;28;20461;-84
2022/02/22 06:54:29;;;;;;;26.43;7.90;;;;;;;;;;5058450;28;20517;-85
2022/02/22 06:56:56;;;;;;;25.27;6.50;;;;;;;;;;5056881;28;20468;-84
2022/02/22 06:59:25;;;;;;;25.87;5.90;;;;;;;;;;5061171;28;20456;-83
2022/02/22 07:01:52;;;;;;;28.33;6.30;;;;;;;;;;5057194;28;20561;-83
2022/02/22 07:04:19;;;;;;;23.67;6.80;;;;;;;;;;5051090;28;20440;-84
2022/02/22 07:06:46;;;;;;;35.20;7.63;;;;;;;;;;5053061;28;20900;-83
2022/02/22 07:09:13;;;;;;;25.20;5.97;;;;;;;;;;5053969;28;20468;-83
2022/02/22 07:11:41;;;;;;;26.20;6.20;;;;;;;;;;5054794;28;20534;-84
2022/02/22 07:14:09;;;;;;;24.63;7.80;;;;;;;;;;5054218;28;20462;-81
2022/02/22 07:16:37;;;;;;;26.33;5.70;;;;;;;;;;5053031;28;20803;-82
2022/02/22 07:19:05;;;;;;;26.33;6.33;;;;;;;;;;5054787;28;20477;-84
2022/02/22 07:21:32;;;;;;;22.13;6.17;;;;;;;;;;5056660;28;20571;-85
2022/02/22 07:23:59;;;;;;;31.00;6.80;;;;;;;;;;5056457;28;20442;-84
2022/02/22 07:26:26;;;;;;;21.17;5.30;;;;;;;;;;5056808;28;20490;-84
2022/02/22 07:28:53;;;;;;;28.53;5.53;;;;;;;;;;5056103;28;20473;-85
2022/02/22 07:31:20;;;;;;;30.37;6.07;;;;;;;;;;5075264;28;20434;-83
2022/02/22 07:33:49;;;;;;;17.47;3.63;;;;;;;;;;5062922;28;20518;-83
2022/02/22 07:36:16;;;;;;;37.83;6.37;;;;;;;;;;5059116;28;20470;-83
2022/02/22 07:38:43;;;;;;;30.73;6.87;;;;;;;;;;5056359;28;20476;-83
2022/02/22 07:41:10;;;;;;;21.63;4.87;;;;;;;;;;5056150;28;20485;-83
2022/02/22 07:43:37;;;;;;;24.40;6.40;;;;;;;;;;5055263;28;20925;-84
2022/02/22 07:46:04;;;;;;;27.47;4.93;;;;;;;;;;5056121;28;20460;-84
2022/02/22 07:48:31;;;;;;;24.30;7.07;;;;;;;;;;5057529;28;20939;-83
2022/02/22 07:51:00;;;;;;;25.90;6.77;;;;;;;;;;5059865;28;20479;-86
2022/02/22 07:53:27;;;;;;;29.17;7.97;;;;;;;;;;5056292;28;20581;-85
2022/02/22 07:55:56;;;;;;;25.30;6.60;;;;;;;;;;5055989;28;20449;-84
2022/02/22 07:58:23;;;;;;;27.80;6.60;;;;;;;;;;5056552;28;20475;-86
2022/02/22 08:00:50;;;;;;;31.37;7.37;;;;;;;;;;5057847;28;20491;-85
2022/02/22 08:03:18;;;;;;;24.93;7.70;;;;;;;;;;5052278;28;20460;-84
2022/02/22 08:05:45;;;;;;;21.50;6.30;;;;;;;;;;5056129;28;20459;-84
2022/02/22 08:08:13;;;;;;;25.20;6.77;;;;;;;;;;5056947;28;20477;-84
2022/02/22 08:10:40;;;;;;;33.20;6.80;;;;;;;;;;5055841;28;20451;-84
2022/02/22 08:13:07;;;;;;;19.80;6.93;;;;;;;;;;5055312;28;20458;-82
2022/02/22 08:15:34;;;;;;;19.00;5.43;;;;;;;;;;5055700;28;20462;-80
2022/02/22 08:18:02;;;;;;;18.27;6.17;;;;;;;;;;5054196;28;20481;-82
2022/02/22 08:20:29;;;;;;;23.63;6.20;;;;;;;;;;5051190;28;20951;-83
2022/02/22 08:22:56;;;;;;;21.47;6.30;;;;;;;;;;5059921;28;20563;-84
2022/02/22 08:25:24;;;;;;;19.70;4.80;;;;;;;;;;5053494;28;20537;-83
2022/02/22 08:27:52;;;;;;;21.77;6.93;;;;;;;;;;5052717;28;20483;-83
2022/02/22 08:30:19;;;;;;;24.83;5.70;;;;;;;;;;5056152;28;20489;-81
2022/02/22 08:32:46;;;;;;;14.87;4.13;;;;;;;;;;5063440;28;20512;-81
2022/02/22 08:35:13;;;;;;;20.13;4.70;;;;;;;;;;5067124;28;21364;-83
2022/02/22 08:37:40;;;;;;;13.10;4.17;;;;;;;;;;5064764;28;20488;-84
2022/02/22 08:40:08;;;;;;;17.73;5.10;;;;;;;;;;5056941;28;20460;-82
2022/02/22 08:42:37;;;;;;;16.73;4.10;;;;;;;;;;5056850;28;20567;-83
2022/02/22 08:45:04;;;;;;;21.63;5.53;;;;;;;;;;5063984;28;20438;-82
2022/02/22 08:47:31;;;;;;;21.93;4.50;;;;;;;;;;5056779;28;20545;-83
2022/02/22 08:49:59;;;;;;;14.50;4.30;;;;;;;;;;5044629;28;20457;-82
2022/02/22 08:52:29;;;;;;;17.60;4.70;;;;;;;;;;5055343;28;20462;-83
2022/02/22 08:54:57;;;;;;;17.10;4.60;;;;;;;;;;5049639;28;21995;-82
2022/02/22 08:57:24;;;;;;;23.20;6.73;;;;;;;;;;5051579;28;20475;-82
2022/02/22 08:59:52;;;;;;;22.07;5.87;;;;;;;;;;5052899;28;20514;-83
2022/02/22 09:02:20;;;;;;;17.83;4.93;;;;;;;;;;5054261;28;20514;-83
2022/02/22 09:04:47;;;;;;;18.57;6.60;;;;;;;;;;5052570;28;20444;-83
2022/02/22 09:07:14;;;;;;;17.93;7.27;;;;;;;;;;5054588;28;20510;-83
2022/02/22 09:09:41;;;;;;;26.90;6.63;;;;;;;;;;5050089;28;20462;-83
2022/02/22 09:12:09;;;;;;;18.20;4.57;;;;;;;;;;5052872;28;20458;-82
2022/02/22 09:14:36;;;;;;;13.77;4.83;;;;;;;;;;5057631;28;20456;-83
2022/02/22 09:17:05;;;;;;;14.90;4.80;;;;;;;;;;5054981;28;20654;-82
2022/02/22 09:19:32;;;;;;;11.17;3.73;;;;;;;;;;5046411;28;20465;-82
2022/02/22 09:21:59;;;;;;;19.37;3.93;;;;;;;;;;5052343;28;20579;-82
2022/02/22 09:24:26;;;;;;;17.07;4.90;;;;;;;;;;5049025;28;21023;-83
2022/02/22 09:26:54;;;;;;;12.10;3.53;;;;;;;;;;5056005;28;20547;-84
2022/02/22 09:29:21;;;;;;;18.87;4.63;;;;;;;;;;5050981;28;21174;-84
2022/02/22 09:31:49;;;;;;;48.83;20.63;;;;;;;;;;5057387;28;20520;-83
2022/02/22 09:34:17;;;;;;;21.20;4.33;;;;;;;;;;5058382;28;20556;-84
2022/02/22 09:36:45;;;;;;;16.40;4.60;;;;;;;;;;5059116;28;20466;-83
2022/02/22 09:39:12;;;;;;;13.57;3.80;;;;;;;;;;5059309;28;20458;-85
2022/02/22 09:41:39;;;;;;;14.73;4.50;;;;;;;;;;5071100;28;20474;-83
2022/02/22 09:44:06;;;;;;;13.23;3.27;;;;;;;;;;5069587;28;20462;-82
2022/02/22 09:46:35;;;;;;;10.20;3.37;;;;;;;;;;5060838;28;20456;-86
2022/02/22 09:49:02;;;;;;;16.20;4.37;;;;;;;;;;5055325;28;20477;-84
2022/02/22 09:51:30;;;;;;;17.80;4.60;;;;;;;;;;5057288;28;20475;-82
2022/02/22 09:53:57;;;;;;;14.87;4.17;;;;;;;;;;5049208;28;20453;-84
2022/02/22 09:56:25;;;;;;;14.80;3.40;;;;;;;;;;5051757;28;20456;-83
2022/02/22 09:58:52;;;;;;;7.70;3.20;;;;;;;;;;5059561;28;20474;-84
2022/02/22 10:01:19;;;;;;;13.63;3.53;;;;;;;;;;5055093;28;20495;-84
2022/02/22 10:03:57;;;;;;;10.33;4.10;;;;;;;;;;5053022;28;20483;-84
2022/02/22 10:06:25;;;;;;;14.27;5.00;;;;;;;;;;5057153;28;20459;-83
2022/02/22 10:08:57;;;;;;;8.30;3.47;;;;;;;;;;5053937;28;20574;-83
2022/02/22 10:11:24;;;;;;;12.80;3.30;;;;;;;;;;5051878;28;20454;-83
2022/02/22 10:13:51;;;;;;;9.80;3.30;;;;;;;;;;5055011;28;20510;-82
2022/02/22 10:16:19;;;;;;;12.70;2.80;;;;;;;;;;5054049;28;20447;-81
2022/02/22 10:18:49;;;;;;;10.97;2.87;;;;;;;;;;5058371;28;21030;-83
2022/02/22 10:21:17;;;;;;;14.70;3.90;;;;;;;;;;5064888;28;20476;-82
2022/02/22 10:23:44;;;;;;;9.47;3.50;;;;;;;;;;5057356;28;20448;-83
2022/02/22 10:26:21;;;;;;;6.27;2.50;;;;;;;;;;5062635;28;20995;-85
2022/02/22 10:28:48;;;;;;;10.63;2.70;;;;;;;;;;5059690;28;20469;-83
2022/02/22 10:31:15;;;;;;;8.00;2.23;;;;;;;;;;5059221;28;20456;-83
2022/02/22 10:33:43;;;;;;;14.73;3.27;;;;;;;;;;5054938;28;20460;-83
2022/02/22 10:36:18;;;;;;;11.30;3.33;;;;;;;;;;5057215;28;20980;-83
2022/02/22 10:38:45;;;;;;;8.10;3.13;;;;;;;;;;5056603;28;20546;-82
2022/02/22 10:41:15;;;;;;;12.30;2.80;;;;;;;;;;5057211;28;20460;-82
2022/02/22 10:43:51;;;;;;;11.90;4.73;;;;;;;;;;5058072;28;20467;-83
2022/02/22 10:46:24;;;;;;;12.60;3.37;;;;;;;;;;5054917;28;20457;-83
2022/02/22 10:48:51;;;;;;;14.97;4.30;;;;;;;;;;5055668;28;20484;-83
2022/02/22 10:51:18;;;;;;;10.90;3.53;;;;;;;;;;5056331;28;20537;-84
2022/02/22 10:53:49;;;;;;;16.20;3.87;;;;;;;;;;5056312;28;20452;-82
2022/02/22 10:56:17;;;;;;;16.37;4.37;;;;;;;;;;5053856;28;20463;-83
2022/02/22 10:58:46;;;;;;;12.50;3.60;;;;;;;;;;5050598;28;20471;-82
2022/02/22 11:01:14;;;;;;;17.83;5.20;;;;;;;;;;5055430;28;20463;-84
2022/02/22 11:03:42;;;;;;;14.73;4.47;;;;;;;;;;5057004;28;20467;-83
2022/02/22 11:06:09;;;;;;;17.17;5.27;;;;;;;;;;5054655;28;20541;-83
2022/02/22 11:08:37;;;;;;;14.00;5.67;;;;;;;;;;5052605;28;20471;-82
2022/02/22 11:11:06;;;;;;;16.60;4.50;;;;;;;;;;5054508;28;20500;-81
2022/02/22 11:13:33;;;;;;;20.40;5.07;;;;;;;;;;5052902;28;21035;-84
2022/02/22 11:16:13;;;;;;;12.27;4.00;;;;;;;;;;5050676;28;20485;-81
2022/02/22 11:18:44;;;;;;;18.73;5.97;;;;;;;;;;5051249;28;20527;-83
2022/02/22 11:21:12;;;;;;;18.97;5.17;;;;;;;;;;5053043;28;20516;-83
2022/02/22 11:23:39;;;;;;;11.30;4.03;;;;;;;;;;5054434;28;20507;-84
2022/02/22 11:26:08;;;;;;;15.43;4.60;;;;;;;;;;5057409;28;20447;-83
2022/02/22 11:28:37;;;;;;;21.13;5.83;;;;;;;;;;5054610;28;20503;-82
2022/02/22 11:31:05;;;;;;;16.90;4.43;;;;;;;;;;5054342;28;20445;-82
2022/02/22 11:33:39;;;;;;;18.93;4.73;;;;;;;;;;5054001;28;20560;-83
2022/02/22 11:36:08;;;;;;;11.93;4.20;;;;;;;;;;5052420;28;20532;-84
2022/02/22 11:38:40;;;;;;;12.63;5.30;;;;;;;;;;5045918;28;20478;-84
2022/02/22 11:41:13;;;;;;;14.87;4.30;;;;;;;;;;5051178;28;20476;-83
2022/02/22 11:43:50;;;;;;;11.43;3.77;;;;;;;;;;5053420;28;20481;-83
2022/02/22 11:46:18;;;;;;;10.33;4.10;;;;;;;;;;5052614;28;20453;-84
2022/02/22 11:48:47;;;;;;;12.43;4.20;;;;;;;;;;5059254;28;20466;-84
2022/02/22 11:51:15;;;;;;;18.73;4.73;;;;;;;;;;5058366;28;21001;-81
2022/02/22 11:53:43;;;;;;;17.70;4.27;;;;;;;;;;5070671;28;20444;-83
2022/02/22 11:56:20;;;;;;;16.37;3.27;;;;;;;;;;5057099;28;20463;-83
2022/02/22 11:58:47;;;;;;;17.40;6.40;;;;;;;;;;5055119;28;20560;-84
2022/02/22 12:01:18;;;;;;;13.30;3.93;;;;;;;;;;5052247;28;20449;-83
2022/02/22 12:03:48;;;;;;;13.90;3.70;;;;;;;;;;5052226;28;20489;-84
2022/02/22 12:06:16;;;;;;;22.03;3.97;;;;;;;;;;5051824;28;20463;-83
2022/02/22 12:08:46;;;;;;;18.77;4.90;;;;;;;;;;5056774;28;20484;-84
2022/02/22 12:11:16;;;;;;;17.00;4.20;;;;;;;;;;5057554;28;20460;-83
2022/02/22 12:13:44;;;;;;;22.60;5.60;;;;;;;;;;5048790;28;20489;-84
2022/02/22 12:16:15;;;;;;;16.60;5.90;;;;;;;;;;5057740;28;20470;-83
2022/02/22 12:18:44;;;;;;;17.87;5.03;;;;;;;;;;5055187;28;20468;-83
2022/02/22 12:21:12;;;;;;;18.77;4.90;;;;;;;;;;5054648;28;20973;-82
2022/02/22 12:23:42;;;;;;;14.10;4.30;;;;;;;;;;5058216;28;20490;-82
2022/02/22 12:26:10;;;;;;;13.67;4.30;;;;;;;;;;5063420;28;20451;-84
2022/02/22 12:28:45;;;;;;;11.63;3.90;;;;;;;;;;5061921;28;20625;-84
2022/02/22 12:31:13;;;;;;;15.23;3.50;;;;;;;;;;5058864;28;20459;-83
2022/02/22 12:33:40;;;;;;;14.50;4.40;;;;;;;;;;5054647;28;20463;-83
2022/02/22 12:36:16;;;;;;;25.60;4.87;;;;;;;;;;5056694;28;20461;-84
2022/02/22 12:38:43;;;;;;;14.43;4.53;;;;;;;;;;5056514;28;20474;-83
2022/02/22 12:41:14;;;;;;;12.60;4.23;;;;;;;;;;5055365;28;20460;-83
2022/02/22 12:43:45;;;;;;;14.80;4.57;;;;;;;;;;5056051;28;20506;-83
2022/02/22 12:46:13;;;;;;;16.77;3.97;;;;;;;;;;5054662;28;20463;-82
2022/02/22 12:48:40;;;;;;;19.60;4.70;;;;;;;;;;5057388;28;20478;-83
2022/02/22 12:51:07;;;;;;;17.40;4.50;;;;;;;;;;5057536;28;20518;-83
2022/02/22 12:53:36;;;;;;;16.43;5.83;;;;;;;;;;5055273;28;20453;-81
2022/02/22 12:56:03;;;;;;;40.73;13.87;;;;;;;;;;5055847;28;20523;-83
2022/02/22 12:58:33;;;;;;;17.17;4.73;;;;;;;;;;5055574;28;20471;-84
2022/02/22 13:01:14;;;;;;;18.20;3.73;;;;;;;;;;5056481;28;20450;-83
2022/02/22 13:03:41;;;;;;;18.30;4.80;;;;;;;;;;5061775;28;20493;-83
2022/02/22 13:06:08;;;;;;;18.50;4.53;;;;;;;;;;5060438;28;20466;-84
2022/02/22 13:08:37;;;;;;;25.20;6.00;;;;;;;;;;5068685;28;20486;-83
2022/02/22 13:11:05;;;;;;;11.37;3.30;;;;;;;;;;5064119;28;20547;-85
2022/02/22 13:13:32;;;;;;;21.00;4.87;;;;;;;;;;5059997;28;20444;-83
2022/02/22 13:16:09;;;;;;;21.20;5.70;;;;;;;;;;5058841;28;20480;-83
2022/02/22 13:18:36;;;;;;;16.00;4.80;;;;;;;;;;5056836;28;20476;-82
2022/02/22 13:21:11;;;;;;;18.23;5.23;;;;;;;;;;5053793;28;20462;-83
2022/02/22 13:23:40;;;;;;;22.67;5.20;;;;;;;;;;5056274;28;20475;-83
2022/02/22 13:26:07;;;;;;;20.37;4.60;;;;;;;;;;5054498;28;20452;-82
2022/02/22 13:28:35;;;;;;;16.43;4.37;;;;;;;;;;5059992;28;21030;-83
2022/02/22 13:31:13;;;;;;;18.90;4.20;;;;;;;;;;5059254;28;20832;-83
2022/02/22 13:33:40;;;;;;;16.30;5.57;;;;;;;;;;5058788;28;20445;-83
2022/02/22 13:36:13;;;;;;;23.47;5.10;;;;;;;;;;5053149;28;20482;-82
2022/02/22 13:38:41;;;;;;;20.17;5.63;;;;;;;;;;5061937;28;20498;-82
2022/02/22 13:41:09;;;;;;;15.43;5.43;;;;;;;;;;5057285;28;21011;-84
2022/02/22 13:43:36;;;;;;;14.97;3.77;;;;;;;;;;5057027;28;20492;-83
2022/02/22 13:46:04;;;;;;;12.20;4.13;;;;;;;;;;5053486;28;20539;-84
2022/02/22 13:48:32;;;;;;;26.70;4.73;;;;;;;;;;5057876;28;20920;-84
2022/02/22 13:51:06;;;;;;;13.63;3.40;;;;;;;;;;5058873;28;20467;-82
2022/02/22 13:53:33;;;;;;;14.63;4.60;;;;;;;;;;5057177;28;20462;-83
2022/02/22 13:56:03;;;;;;;10.83;4.27;;;;;;;;;;5055548;28;20921;-82
2022/02/22 13:58:31;;;;;;;18.67;3.83;;;;;;;;;;5056124;28;21021;-83
2022/02/22 14:00:58;;;;;;;9.03;3.40;;;;;;;;;;5059486;28;20520;-83
2022/02/22 14:03:26;;;;;;;15.17;2.90;;;;;;;;;;5073065;28;20524;-81
2022/02/22 14:05:53;;;;;;;15.05;4.50;;;;;;;;;;5066741;28;20439;-84
2022/02/22 14:08:20;;;;;;;14.73;5.00;;;;;;;;;;5066909;28;20332;-82
2022/02/22 14:10:48;;;;;;;10.20;3.57;;;;;;;;;;5061961;28;20444;-83
2022/02/22 14:13:17;;;;;;;17.97;4.60;;;;;;;;;;5058894;28;20972;-83
2022/02/22 14:15:44;;;;;;;11.20;3.40;;;;;;;;;;5059230;28;20444;-83
2022/02/22 14:18:12;;;;;;;10.60;3.77;;;;;;;;;;5057555;28;20536;-83
2022/02/22 14:20:39;;;;;;;14.13;4.40;;;;;;;;;;5059921;28;20459;-84
2022/02/22 14:23:07;;;;;;;12.87;3.97;;;;;;;;;;5059533;28;20481;-82
2022/02/22 14:25:36;;;;;;;14.77;4.80;;;;;;;;;;5057337;28;20450;-83
2022/02/22 14:28:04;;;;;;;11.10;3.60;;;;;;;;;;5060038;28;21032;-83
2022/02/22 14:30:32;;;;;;;8.97;3.03;;;;;;;;;;5052069;28;20818;-81
2022/02/22 14:32:59;;;;;;;14.47;4.00;;;;;;;;;;5053579;28;20425;-79
2022/02/22 14:35:27;;;;;;;11.73;3.87;;;;;;;;;;5057362;22;20513;-80
2022/02/22 14:37:54;;;;;;;7.37;3.67;;;;;;;;;;5038431;28;20487;-80
2022/02/22 14:40:21;;;;;;;12.40;3.03;;;;;;;;;;5033942;28;20572;-80